Time;durP1;ratioP1;P1;durP2;ratioP2;P2;SDS_P1;SDS_P2;PMS_P1;PMS_P2;Temp;Humidity;BMP_temperature;BMP_pressure;BME280_temperature;BME280_humidity;BME280_pressure;Samples;Min_cycle;Max_cycle;Signal;HPM_P1;HPM_P2
2022/01/17 00:01:39;;;;;;;37.90;21.50;;;;;;;3.79;76.13;100487.58;2258848;78;32968;-63
2022/01/17 00:04:41;;;;;;;38.13;21.73;;;;;;;3.83;76.02;100491.47;2263124;78;29825;-63
2022/01/17 00:07:44;;;;;;;33.28;21.42;;;;;;;3.84;76.01;100468.05;2264494;78;27735;-63
2022/01/17 00:10:46;;;;;;;34.23;22.30;;;;;;;3.86;76.09;100474.20;2257935;78;29065;-64
2022/01/17 00:13:49;;;;;;;36.25;21.35;;;;;;;3.87;76.06;100471.97;2258081;78;31719;-65
2022/01/17 00:17:06;;;;;;;35.17;21.52;;;;;;;3.88;76.09;100466.66;2257712;78;32948;-63
2022/01/17 00:19:56;;;;;;;29.87;19.62;;;;;;;3.89;75.98;100455.59;2243854;78;29465;-62
2022/01/17 00:22:58;;;;;;;32.03;20.05;;;;;;;3.89;76.00;100461.75;2236152;79;27682;-62
2022/01/17 00:26:00;;;;;;;28.98;19.92;;;;;;;3.89;75.97;100463.08;2237360;78;29044;-65
2022/01/17 00:29:02;;;;;;;29.77;19.25;;;;;;;3.90;75.96;100454.69;2278248;78;31596;-65
2022/01/17 00:32:04;;;;;;;32.13;20.02;;;;;;;3.91;75.88;100439.21;2277192;78;33006;-65
2022/01/17 00:35:08;;;;;;;31.35;18.65;;;;;;;3.93;75.83;100428.13;2278182;78;29679;-65
2022/01/17 00:38:15;;;;;;;29.52;18.73;;;;;;;3.94;75.73;100421.46;2275998;78;27676;-64
2022/01/17 00:41:14;;;;;;;28.77;19.07;;;;;;;3.95;75.77;100429.84;2276920;78;29465;-64
2022/01/17 00:44:21;;;;;;;30.65;19.15;;;;;;;3.98;75.73;100424.91;2278173;78;31397;-64
2022/01/17 00:47:20;;;;;;;30.20;19.73;;;;;;;3.99;75.62;100437.27;2277954;78;32957;-64
2022/01/17 00:50:27;;;;;;;30.52;18.55;;;;;;;4.01;75.57;100437.25;2277866;78;29676;-65
2022/01/17 00:53:30;;;;;;;28.95;19.67;;;;;;;4.01;75.53;100417.38;2277914;78;27664;-65
2022/01/17 00:56:32;;;;;;;29.52;17.70;;;;;;;4.04;75.52;100421.30;2278000;78;28813;-65
2022/01/17 00:59:34;;;;;;;24.92;17.92;;;;;;;4.08;75.46;100425.60;2256370;78;31475;-64
2022/01/17 01:02:36;;;;;;;29.70;16.85;;;;;;;4.09;75.46;100428.67;2236940;79;33773;-65
2022/01/17 01:05:39;;;;;;;28.00;18.17;;;;;;;4.10;75.37;100432.64;2236903;78;29512;-64
2022/01/17 01:08:40;;;;;;;28.32;17.52;;;;;;;4.12;75.42;100425.11;2238323;78;27701;-65
2022/01/17 01:11:42;;;;;;;25.68;16.95;;;;;;;4.13;75.43;100411.80;2236970;79;29954;-63
2022/01/17 01:14:46;;;;;;;27.90;17.80;;;;;;;4.12;75.37;100412.70;2247284;78;31465;-64
2022/01/17 01:17:54;;;;;;;25.08;17.52;;;;;;;4.14;75.31;100402.09;2277992;78;33510;-64
2022/01/17 01:21:19;;;;;;;26.95;16.75;;;;;;;4.15;75.18;100397.18;2276869;78;29034;-65
2022/01/17 01:27:50;;;;;;;27.40;17.73;;;;;;;4.16;75.17;100386.56;2277664;78;28938;-63
2022/01/17 01:30:50;;;;;;;24.25;16.60;;;;;;;4.16;75.12;100373.73;2276388;78;32234;-61
2022/01/17 01:33:54;;;;;;;28.10;16.60;;;;;;;4.16;75.12;100378.61;2277908;78;33562;-63
2022/01/17 01:36:53;;;;;;;27.22;17.10;;;;;;;4.16;75.30;100375.06;2260301;78;29048;-64
2022/01/17 01:39:56;;;;;;;27.25;17.77;;;;;;;4.13;75.36;100381.31;2237364;79;27704;-63
2022/01/17 01:42:58;;;;;;;26.25;17.48;;;;;;;4.12;75.38;100381.36;2237215;79;29538;-61
2022/01/17 01:46:02;;;;;;;24.32;16.85;;;;;;;4.10;75.39;100380.94;2237418;79;32207;-64
2022/01/17 01:49:04;;;;;;;26.00;16.20;;;;;;;4.09;75.40;100375.22;2237342;79;32961;-62
2022/01/17 01:52:07;;;;;;;25.85;16.45;;;;;;;4.08;75.34;100372.14;2236417;79;29882;-62
2022/01/17 01:55:12;;;;;;;24.77;16.37;;;;;;;4.10;75.37;100370.77;2236018;79;27750;-63
2022/01/17 01:58:15;;;;;;;19.35;14.30;;;;;;;4.09;75.19;100360.64;2240213;78;29366;-62
2022/01/17 02:01:17;;;;;;;26.75;15.18;;;;;;;4.10;75.23;100370.34;2274248;78;31077;-62
2022/01/17 02:04:19;;;;;;;24.70;14.43;;;;;;;4.11;75.27;100352.63;2236793;78;33662;-61
2022/01/17 02:07:22;;;;;;;21.02;14.40;;;;;;;4.13;75.17;100353.95;2240898;78;30525;-64
2022/01/17 02:10:24;;;;;;;21.45;14.60;;;;;;;4.13;75.21;100335.39;2242261;79;27912;-64
2022/01/17 02:13:26;;;;;;;22.75;14.63;;;;;;;4.14;75.17;100344.63;2240460;78;29828;-65
2022/01/17 02:16:28;;;;;;;23.02;14.53;;;;;;;4.14;75.24;100340.64;2241925;78;31880;-64
2022/01/17 02:19:31;;;;;;;23.35;14.23;;;;;;;4.15;75.27;100330.89;2241760;79;33073;-65
2022/01/17 02:22:33;;;;;;;22.77;14.35;;;;;;;4.14;75.29;100327.39;2245018;78;29029;-62
2022/01/17 02:25:41;;;;;;;22.48;14.65;;;;;;;4.15;75.32;100315.88;2259036;78;27644;-62
2022/01/17 02:28:51;;;;;;;23.30;15.55;;;;;;;4.15;75.40;100311.90;2258192;78;28312;-64
2022/01/17 02:31:53;;;;;;;25.43;15.03;;;;;;;4.15;75.41;100284.50;2247628;78;30883;-63
2022/01/17 02:35:17;;;;;;;22.15;14.98;;;;;;;4.14;75.42;100293.39;2218098;79;33080;-62
2022/01/17 02:38:19;;;;;;;25.85;15.13;;;;;;;4.14;75.48;100300.88;2218672;80;29076;-65
2022/01/17 02:41:21;;;;;;;23.38;16.48;;;;;;;4.14;75.53;100298.22;2218598;80;27596;-63
2022/01/17 02:44:22;;;;;;;22.82;15.43;;;;;;;4.15;75.58;100291.13;2250608;78;29845;-64
2022/01/17 02:47:24;;;;;;;26.77;16.62;;;;;;;4.15;75.62;100285.38;2258552;78;31895;-62
2022/01/17 02:50:27;;;;;;;24.98;16.17;;;;;;;4.16;75.66;100275.20;2258442;78;33498;-64
2022/01/17 02:53:29;;;;;;;24.02;16.12;;;;;;;4.17;75.71;100269.42;2258565;78;29735;-65
2022/01/17 02:56:31;;;;;;;25.02;15.75;;;;;;;4.18;75.74;100281.78;2257521;78;28238;-64
2022/01/17 02:59:33;;;;;;;22.30;15.13;;;;;;;4.18;75.78;100273.39;2258329;78;29924;-65
2022/01/17 03:02:35;;;;;;;25.45;16.52;;;;;;;4.19;75.73;100269.83;2240131;78;32252;-64
2022/01/17 03:05:37;;;;;;;24.23;16.62;;;;;;;4.19;75.75;100275.57;2221331;79;34088;-64
2022/01/17 03:08:41;;;;;;;24.47;16.50;;;;;;;4.20;75.76;100274.23;2237538;79;29058;-65
2022/01/17 03:11:42;;;;;;;27.20;16.97;;;;;;;4.22;75.81;100269.73;2237188;79;27707;-64
2022/01/17 03:14:44;;;;;;;25.45;17.00;;;;;;;4.24;75.85;100265.73;2246205;78;29348;-64
2022/01/17 03:17:46;;;;;;;26.02;17.45;;;;;;;4.24;75.89;100271.89;2271526;78;32258;-64
2022/01/17 03:20:49;;;;;;;27.00;16.70;;;;;;;4.25;75.95;100281.59;2270981;78;33327;-64
2022/01/17 03:23:51;;;;;;;26.57;18.32;;;;;;;4.24;76.12;100276.34;2272127;78;28862;-64
2022/01/17 03:26:53;;;;;;;26.60;18.52;;;;;;;4.25;76.29;100263.03;2271841;78;27728;-64
2022/01/17 03:29:55;;;;;;;24.60;17.90;;;;;;;4.24;76.30;100263.94;2271918;78;29509;-62
2022/01/17 03:32:57;;;;;;;25.90;17.62;;;;;;;4.26;76.42;100259.48;2248085;78;31607;-64
2022/01/17 03:35:59;;;;;;;29.87;18.37;;;;;;;4.26;76.46;100251.99;2237936;78;33666;-64
2022/01/17 03:39:00;;;;;;;26.30;18.75;;;;;;;4.25;76.48;100236.52;2236667;79;29081;-64
2022/01/17 03:42:03;;;;;;;27.27;18.32;;;;;;;4.25;76.48;100243.62;2237114;79;27982;-64
2022/01/17 03:45:07;;;;;;;24.98;16.45;;;;;;;4.25;76.56;100232.54;2236618;79;28722;-64
2022/01/17 03:48:13;;;;;;;28.25;17.62;;;;;;;4.26;76.57;100230.78;2237508;78;31011;-64
2022/01/17 03:51:16;;;;;;;26.60;18.80;;;;;;;4.24;76.68;100230.80;2265521;78;33491;-65
2022/01/17 03:54:18;;;;;;;25.62;18.20;;;;;;;4.23;76.77;100223.75;2229414;79;29877;-64
2022/01/17 03:57:20;;;;;;;27.62;18.85;;;;;;;4.23;76.75;100229.05;2265241;78;27621;-63
2022/01/17 04:00:29;;;;;;;26.75;17.95;;;;;;;4.23;76.71;100206.98;2265422;78;28901;-64
2022/01/17 04:03:31;;;;;;;31.80;19.77;;;;;;;4.23;76.74;100211.81;2247971;78;32214;-63
2022/01/17 04:06:34;;;;;;;26.55;17.42;;;;;;;4.25;76.72;100222.41;2264360;78;33718;-63
2022/01/17 04:09:36;;;;;;;24.27;16.27;;;;;;;4.26;76.62;100210.42;2307401;77;28867;-63
2022/01/17 04:12:38;;;;;;;23.18;16.10;;;;;;;4.29;76.60;100209.49;2305970;77;27721;-62
2022/01/17 04:15:41;;;;;;;24.32;16.27;;;;;;;4.31;76.53;100208.97;2307413;77;28698;-63
2022/01/17 04:18:43;;;;;;;23.12;16.15;;;;;;;4.33;76.49;100208.95;2307244;77;31030;-64
2022/01/17 04:21:47;;;;;;;27.55;17.60;;;;;;;4.35;76.41;100189.90;2307440;77;33582;-66
2022/01/17 04:24:49;;;;;;;22.67;15.60;;;;;;;4.37;76.37;100188.08;2306634;77;29037;-64
2022/01/17 04:27:52;;;;;;;23.55;15.15;;;;;;;4.38;76.28;100177.89;2247950;78;27594;-63
2022/01/17 04:30:54;;;;;;;22.00;13.75;;;;;;;4.39;76.18;100176.95;2269337;78;29549;-63
2022/01/17 04:33:56;;;;;;;22.00;14.93;;;;;;;4.41;76.15;100161.87;2269892;78;30793;-64
2022/01/17 04:36:58;;;;;;;23.83;16.02;;;;;;;4.44;76.11;100152.98;2224465;78;32699;-63
2022/01/17 04:40:00;;;;;;;19.92;13.62;;;;;;;4.45;76.08;100163.53;2223818;80;29925;-63
2022/01/17 04:43:12;;;;;;;20.00;12.93;;;;;;;4.46;75.92;100163.95;2226814;79;27585;-62
2022/01/17 04:46:11;;;;;;;18.80;12.82;;;;;;;4.49;75.73;100170.95;2263710;78;29382;-63
2022/01/17 04:49:13;;;;;;;21.20;12.40;;;;;;;4.50;75.80;100163.41;2229564;79;31016;-62
2022/01/17 04:52:16;;;;;;;20.35;12.18;;;;;;;4.52;75.75;100159.82;2265312;78;32964;-62
2022/01/17 04:55:19;;;;;;;17.90;11.80;;;;;;;4.53;75.68;100164.22;2265956;77;29314;-63
2022/01/17 04:58:22;;;;;;;19.52;11.15;;;;;;;4.54;75.60;100158.44;2270559;77;27714;-62
2022/01/17 05:01:26;;;;;;;14.45;8.45;;;;;;;4.56;75.57;100164.11;2307696;77;27611;-61
2022/01/17 05:04:27;;;;;;;20.25;11.53;;;;;;;4.59;75.50;100145.93;2306189;77;32255;-63
2022/01/17 05:07:29;;;;;;;14.95;9.95;;;;;;;4.59;75.51;100141.95;2299180;77;33602;-62
2022/01/17 05:10:31;;;;;;;17.30;11.50;;;;;;;4.62;75.50;100132.59;2294381;77;29423;-62
2022/01/17 05:13:35;;;;;;;17.73;10.78;;;;;;;4.62;75.35;100141.87;2294310;77;27653;-63
2022/01/17 05:16:44;;;;;;;17.48;10.53;;;;;;;4.64;75.41;100137.84;2293850;77;29875;-63
2022/01/17 05:19:49;;;;;;;18.07;10.20;;;;;;;4.65;75.34;100139.58;2293308;77;31181;-62
2022/01/17 05:22:53;;;;;;;16.48;11.15;;;;;;;4.66;75.27;100133.36;2294184;77;34099;-63
2022/01/17 05:25:55;;;;;;;19.30;10.50;;;;;;;4.68;75.32;100133.72;2292112;77;29801;-63
2022/01/17 05:28:57;;;;;;;18.45;11.93;;;;;;;4.68;75.12;100129.74;2294320;77;27194;-63
2022/01/17 05:31:59;;;;;;;20.37;10.78;;;;;;;4.71;75.03;100126.16;2294550;77;28538;-60
2022/01/17 05:35:00;;;;;;;15.08;10.60;;;;;;;4.70;75.13;100128.39;2294509;77;31623;-60
2022/01/17 05:38:02;;;;;;;18.67;10.25;;;;;;;4.70;75.23;100130.58;2294068;77;34283;-60
2022/01/17 05:41:05;;;;;;;17.12;10.93;;;;;;;4.69;75.36;100130.62;2294494;77;30074;-60
2022/01/17 05:44:07;;;;;;;18.05;11.15;;;;;;;4.67;75.49;100151.88;2293857;77;27697;-60
2022/01/17 05:47:09;;;;;;;20.62;10.60;;;;;;;4.66;75.59;100149.28;2294664;77;29224;-61
2022/01/17 05:50:11;;;;;;;20.15;11.88;;;;;;;4.65;75.77;100152.84;2294222;77;32163;-61
2022/01/17 05:53:14;;;;;;;20.85;11.63;;;;;;;4.61;75.97;100151.19;2294117;77;33579;-60
2022/01/17 05:56:16;;;;;;;23.02;12.88;;;;;;;4.58;76.15;100154.80;2291985;77;29381;-61
2022/01/17 05:59:18;;;;;;;23.18;14.23;;;;;;;4.54;76.37;100146.50;2281066;77;27710;-62
2022/01/17 06:02:20;;;;;;;23.00;12.50;;;;;;;4.49;76.51;100155.92;2266068;78;29564;-62
2022/01/17 06:05:24;;;;;;;19.70;11.90;;;;;;;4.45;76.54;100138.34;2265845;78;27709;-61
2022/01/17 06:08:26;;;;;;;23.38;13.10;;;;;;;4.40;76.71;100129.19;2268598;78;34143;-61
2022/01/17 06:11:28;;;;;;;21.97;12.88;;;;;;;4.38;76.89;100119.54;2270168;78;29330;-59
2022/01/17 06:14:31;;;;;;;20.23;11.70;;;;;;;4.36;76.92;100113.41;2270222;78;27693;-59
2022/01/17 06:17:33;;;;;;;17.12;10.88;;;;;;;4.33;76.98;100103.73;2270146;78;29940;-60
2022/01/17 06:20:38;;;;;;;19.35;11.48;;;;;;;4.34;77.05;100101.96;2270196;78;31459;-60
2022/01/17 06:23:40;;;;;;;20.90;10.63;;;;;;;4.32;77.20;100082.09;2270765;78;33557;-60
2022/01/17 06:26:42;;;;;;;16.65;11.40;;;;;;;4.33;77.23;100077.68;2271078;77;30169;-59
2022/01/17 06:29:44;;;;;;;19.45;11.25;;;;;;;4.32;77.21;100067.98;2270429;77;28079;-61
2022/01/17 06:32:46;;;;;;;18.37;11.95;;;;;;;4.31;77.23;100059.61;2269977;78;29962;-59
2022/01/17 06:35:48;;;;;;;19.55;10.95;;;;;;;4.30;77.29;100061.41;2270328;77;31024;-59
2022/01/17 06:38:50;;;;;;;18.25;12.00;;;;;;;4.29;77.23;100066.73;2270041;77;33672;-59
2022/01/17 06:41:53;;;;;;;20.23;11.20;;;;;;;4.28;77.20;100047.76;2270137;77;29708;-60
2022/01/17 06:44:56;;;;;;;18.50;10.30;;;;;;;4.27;77.19;100048.23;2269606;78;27677;-62
2022/01/17 06:47:57;;;;;;;14.10;8.98;;;;;;;4.25;77.15;100028.36;2297861;77;28485;-60
2022/01/17 06:51:00;;;;;;;21.50;8.98;;;;;;;4.26;77.08;100006.71;2311558;76;31983;-60
2022/01/17 06:54:01;;;;;;;15.05;8.60;;;;;;;4.28;76.99;99977.48;2312259;76;33764;-62
2022/01/17 06:57:05;;;;;;;15.55;9.08;;;;;;;4.29;76.91;99948.73;2284157;77;29004;-61
2022/01/17 07:00:10;;;;;;;19.32;10.43;;;;;;;4.31;76.91;99930.53;2270560;77;27669;-61
2022/01/17 07:03:12;;;;;;;18.52;8.68;;;;;;;4.33;76.86;99921.22;2242652;78;28855;-62
2022/01/17 07:06:16;;;;;;;14.78;8.90;;;;;;;4.36;76.76;99933.92;2269756;78;31869;-60
2022/01/17 07:09:19;;;;;;;16.50;8.20;;;;;;;4.40;76.70;99930.27;2220796;80;32979;-61
2022/01/17 07:12:21;;;;;;;13.32;8.55;;;;;;;4.43;76.71;99950.98;2276859;77;29835;-61
2022/01/17 07:15:23;;;;;;;13.80;7.87;;;;;;;4.46;76.56;99963.69;2307503;77;27979;-60
2022/01/17 07:18:25;;;;;;;12.75;7.45;;;;;;;4.49;76.46;99971.56;2307021;77;29994;-61
2022/01/17 07:21:29;;;;;;;12.68;7.55;;;;;;;4.54;76.29;99997.94;2307435;77;31158;-60
2022/01/17 07:24:32;;;;;;;12.75;7.05;;;;;;;4.59;76.23;99984.53;2307311;77;33158;-62
2022/01/17 07:27:36;;;;;;;10.70;6.33;;;;;;;4.63;76.30;99990.17;2307279;77;29646;-60
2022/01/17 07:30:39;;;;;;;16.12;7.15;;;;;;;4.68;76.26;99993.56;2307624;77;27678;-61
2022/01/17 07:33:43;;;;;;;14.83;6.50;;;;;;;4.71;76.27;99989.02;2307004;77;28696;-60
2022/01/17 07:36:45;;;;;;;10.15;6.47;;;;;;;4.75;76.20;99957.95;2308325;77;31011;-60
2022/01/17 07:39:47;;;;;;;9.13;6.05;;;;;;;4.76;76.13;99913.24;2282621;77;33677;-60
2022/01/17 07:42:49;;;;;;;7.75;5.37;;;;;;;4.75;76.22;99900.89;2245657;78;29196;-61
2022/01/17 07:46:05;;;;;;;13.03;6.28;;;;;;;4.77;76.25;99894.23;2222502;80;27615;-61
2022/01/17 07:49:10;;;;;;;11.33;5.83;;;;;;;4.77;76.27;99915.45;2265247;78;29943;-61
2022/01/17 07:52:13;;;;;;;9.95;5.80;;;;;;;4.75;76.10;99908.85;2265925;78;32251;-63
2022/01/17 07:55:17;;;;;;;10.55;5.05;;;;;;;4.75;76.28;99900.03;2229276;79;34291;-61
2022/01/17 07:58:19;;;;;;;10.60;5.28;;;;;;;4.71;76.51;99909.42;2229990;78;29071;-62
2022/01/17 08:01:22;;;;;;;8.48;4.97;;;;;;;4.69;76.55;99909.92;2265414;78;27618;-62
2022/01/17 08:04:24;;;;;;;7.55;4.35;;;;;;;4.66;76.72;99912.66;2265530;78;29509;-61
2022/01/17 08:07:26;;;;;;;8.63;4.87;;;;;;;4.62;76.80;99879.66;2221762;79;31392;-60
2022/01/17 08:10:30;;;;;;;7.28;4.25;;;;;;;4.59;76.92;99858.52;2181818;81;32418;-61
2022/01/17 08:13:32;;;;;;;12.43;5.03;;;;;;;4.55;76.96;99850.66;2169916;80;29040;-61
2022/01/17 08:16:35;;;;;;;6.33;3.65;;;;;;;4.55;77.06;99855.11;2201274;80;27688;-61
2022/01/17 08:19:37;;;;;;;10.80;4.30;;;;;;;4.53;77.10;99858.27;2201499;80;28268;-61
2022/01/17 08:22:41;;;;;;;11.83;3.65;;;;;;;4.55;77.15;99867.90;2201505;80;31443;-61
2022/01/17 08:25:43;;;;;;;7.03;3.80;;;;;;;4.54;77.09;99850.72;2201112;80;34237;-61
2022/01/17 08:28:45;;;;;;;5.90;3.20;;;;;;;4.58;77.18;99880.66;2172700;80;29858;-61
2022/01/17 08:31:47;;;;;;;7.00;3.22;;;;;;;4.59;77.28;99850.56;2201409;80;28278;-61
2022/01/17 08:34:49;;;;;;;9.83;3.20;;;;;;;4.61;77.33;99849.62;2201299;80;29920;-60
2022/01/17 08:37:52;;;;;;;8.13;4.08;;;;;;;4.61;77.33;99844.75;2201302;80;32256;-60
2022/01/17 08:40:54;;;;;;;7.67;3.58;;;;;;;4.61;77.49;99823.09;2201531;80;32974;-61
2022/01/17 08:43:56;;;;;;;9.50;3.80;;;;;;;4.61;77.57;99846.08;2222741;79;30195;-59
2022/01/17 08:46:58;;;;;;;6.37;3.87;;;;;;;4.62;77.66;99809.35;2224746;80;27691;-59
2022/01/17 08:50:00;;;;;;;6.87;4.22;;;;;;;4.61;77.66;99809.83;2224498;80;29516;-59
2022/01/17 08:53:02;;;;;;;14.03;6.05;;;;;;;4.63;77.68;99789.86;2224609;80;31729;-61
2022/01/17 08:56:07;;;;;;;7.20;3.90;;;;;;;4.63;77.73;99793.84;2223576;80;33832;-61
2022/01/17 08:59:08;;;;;;;7.10;3.33;;;;;;;4.66;77.79;99797.25;2225357;80;29690;-60
2022/01/17 09:02:13;;;;;;;8.23;3.50;;;;;;;4.69;77.83;99809.57;2226016;79;27554;-60
2022/01/17 09:05:15;;;;;;;6.45;2.75;;;;;;;4.70;77.68;99789.61;2240703;79;28754;-61
2022/01/17 09:08:18;;;;;;;5.78;2.70;;;;;;;4.73;77.67;99811.65;2246439;78;32263;-60
2022/01/17 09:11:22;;;;;;;6.47;2.65;;;;;;;4.70;77.50;99815.28;2251242;78;34186;-62
2022/01/17 09:14:24;;;;;;;7.47;2.85;;;;;;;4.70;77.56;99803.34;2192348;80;29163;-62
2022/01/17 09:17:26;;;;;;;10.58;3.47;;;;;;;4.69;77.59;99831.64;2227664;79;27697;-61
2022/01/17 09:20:30;;;;;;;6.30;3.60;;;;;;;4.70;77.49;99811.30;2240880;78;28713;-62
2022/01/17 09:23:32;;;;;;;5.90;2.80;;;;;;;4.71;77.49;99818.34;2242009;79;31129;-61
2022/01/17 09:26:35;;;;;;;4.28;1.98;;;;;;;4.73;77.48;99827.57;2241562;78;34191;-61
2022/01/17 09:29:37;;;;;;;6.03;2.80;;;;;;;4.72;77.32;99810.77;2241758;78;29731;-61
2022/01/17 09:32:40;;;;;;;7.08;3.47;;;;;;;4.75;77.38;99813.80;2230151;78;27734;-61
2022/01/17 09:35:42;;;;;;;8.08;3.00;;;;;;;4.78;77.36;99794.66;2257885;78;29252;-61
2022/01/17 09:38:43;;;;;;;5.08;2.17;;;;;;;4.85;77.37;99796.63;2258266;78;31930;-61
2022/01/17 09:41:46;;;;;;;4.22;2.25;;;;;;;4.90;77.26;99797.35;2247037;78;32989;-61
2022/01/17 09:44:48;;;;;;;5.67;2.47;;;;;;;4.95;77.33;99782.59;2234086;79;29058;-62
2022/01/17 09:47:50;;;;;;;5.03;2.35;;;;;;;5.00;77.42;99780.65;2242179;78;27708;-61
2022/01/17 09:51:04;;;;;;;6.37;2.37;;;;;;;5.05;77.50;99757.44;2242092;79;29221;-61
2022/01/17 09:54:07;;;;;;;8.48;3.15;;;;;;;5.09;77.61;99764.86;2241457;78;32309;-61
2022/01/17 09:57:11;;;;;;;4.70;2.80;;;;;;;5.10;77.43;99754.17;2226207;79;33053;-61
2022/01/17 10:00:16;;;;;;;7.37;3.95;;;;;;;5.11;77.41;99763.02;2242158;79;29249;-61
2022/01/17 10:03:18;;;;;;;5.30;2.70;;;;;;;5.14;77.51;99766.42;2241079;78;27668;-61
2022/01/17 10:06:20;;;;;;;6.22;2.62;;;;;;;5.22;77.43;99758.17;2241769;79;29920;-61
2022/01/17 10:09:25;;;;;;;5.92;2.10;;;;;;;5.27;77.31;99729.67;2238989;78;32248;-61
2022/01/17 10:12:27;;;;;;;4.87;1.80;;;;;;;5.32;77.05;99717.06;2237718;79;33011;-61
2022/01/17 10:15:43;;;;;;;4.65;2.60;;;;;;;5.39;76.90;99729.66;2237216;79;30320;-61
2022/01/17 10:18:41;;;;;;;7.60;2.42;;;;;;;5.43;76.98;99741.05;2235959;78;27617;-60
2022/01/17 10:21:47;;;;;;;10.53;3.25;;;;;;;5.48;76.82;99715.16;2237959;79;29458;-60
2022/01/17 10:24:58;;;;;;;5.85;3.25;;;;;;;5.53;76.87;99710.55;2237154;78;31717;-60
2022/01/17 10:28:23;;;;;;;3.33;2.00;;;;;;;5.59;76.69;99709.44;2261782;78;32983;-61
2022/01/17 10:34:53;;;;;;;4.55;2.20;;;;;;;5.60;76.58;99723.12;2265213;78;32384;-60
2022/01/17 10:34:56;;;;;;;4.95;2.52;;;;;;;5.67;76.58;99715.78;2249334;79;27677;-61
2022/01/17 10:38:09;;;;;;;7.58;3.25;;;;;;;5.66;76.50;99726.89;2254077;79;29146;-60
2022/01/17 10:41:13;;;;;;;5.87;2.17;;;;;;;5.68;76.84;99738.77;2253685;78;31405;-61
2022/01/17 10:44:37;;;;;;;3.90;2.40;;;;;;;5.67;76.72;99714.00;2238711;78;32992;-60
2022/01/17 10:47:43;;;;;;;37.80;18.70;;;;;;;5.67;76.72;99707.81;2237330;79;29802;-59
2022/01/17 10:50:49;;;;;;;54.60;26.10;;;;;;;5.62;76.77;99706.66;2247849;78;27672;-60
2022/01/17 10:53:51;;;;;;;51.83;16.27;;;;;;;5.63;76.81;99725.67;2278297;78;29464;-60
2022/01/17 10:56:56;;;;;;;13.72;5.17;;;;;;;5.65;76.77;99695.92;2278220;78;32177;-60
2022/01/17 10:59:58;;;;;;;34.27;11.70;;;;;;;5.65;76.70;99693.71;2278351;78;34183;-60
2022/01/17 11:03:05;;;;;;;37.10;13.68;;;;;;;5.66;76.71;99716.70;2277959;78;28938;-59
2022/01/17 11:06:13;;;;;;;18.75;6.62;;;;;;;5.63;76.74;99725.19;2278147;78;27688;-59
2022/01/17 11:09:15;;;;;;;7.22;2.72;;;;;;;5.59;76.92;99768.77;2278006;78;28784;-60
2022/01/17 11:12:19;;;;;;;3.98;1.50;;;;;;;5.55;77.24;99897.78;2249986;78;31804;-59
2022/01/17 11:15:22;;;;;;;2.58;0.80;;;;;;;5.35;76.02;99966.22;2237667;79;33054;-59
2022/01/17 11:18:29;;;;;;;2.52;0.88;;;;;;;4.96;75.63;99966.16;2237632;79;29005;-59
2022/01/17 11:21:32;;;;;;;4.50;1.30;;;;;;;4.53;75.15;99978.52;2238212;79;28075;-59
2022/01/17 11:24:34;;;;;;;4.80;1.50;;;;;;;4.15;75.43;100014.97;2237531;79;28659;-59
2022/01/17 11:27:37;;;;;;;2.05;1.62;;;;;;;3.81;75.51;100014.55;2237037;79;31650;-59
2022/01/17 11:30:41;;;;;;;2.33;1.27;;;;;;;3.56;75.86;100052.72;2237372;79;34212;-60
2022/01/17 11:33:46;;;;;;;4.60;1.93;;;;;;;3.31;75.92;100062.59;2237133;78;29082;-59
2022/01/17 11:36:48;;;;;;;4.05;1.90;;;;;;;3.08;76.26;100084.27;2237469;79;27771;-59
2022/01/17 11:39:56;;;;;;;4.78;2.25;;;;;;;2.89;76.44;100074.13;2236987;79;29994;-59
2022/01/17 11:43:00;;;;;;;3.80;1.72;;;;;;;2.78;76.74;100052.30;2237849;78;31192;-59
2022/01/17 11:46:26;;;;;;;3.05;1.50;;;;;;;2.70;76.99;100072.30;2236921;79;33013;-59
2022/01/17 11:49:31;;;;;;;;;;;;;;;2.63;77.13;100092.71;2239367;79;29917;-60
2022/01/17 11:52:33;;;;;;;4.30;1.82;;;;;;;2.60;77.29;100068.11;2237507;79;27652;-59
2022/01/17 11:55:43;;;;;;;11.53;5.33;;;;;;;2.61;77.30;100060.60;2259087;78;29032;-59
2022/01/17 11:58:48;;;;;;;5.28;2.52;;;;;;;2.66;77.50;100060.92;2277486;78;31009;-59
2022/01/17 12:02:30;;;;;;;10.08;2.85;;;;;;;2.69;77.34;100051.60;2278428;78;33902;-59
2022/01/17 12:05:33;;;;;;;9.68;2.70;;;;;;;2.79;77.65;100075.20;2277870;78;29092;-59
2022/01/17 12:08:35;;;;;;;5.05;2.47;;;;;;;2.90;77.75;100079.80;2276264;78;27814;-58
2022/01/17 12:11:41;;;;;;;7.65;3.77;;;;;;;2.99;77.70;100095.50;2241525;78;30109;-58
2022/01/17 12:14:54;;;;;;;8.25;4.10;;;;;;;3.06;77.65;100116.55;2199285;80;32972;-60
2022/01/17 12:18:01;;;;;;;14.60;5.92;;;;;;;3.11;77.72;100119.94;2195294;80;33785;-59
2022/01/17 12:21:34;;;;;;;13.00;7.55;;;;;;;3.17;77.77;100120.67;2192817;80;29072;-59
2022/01/17 12:24:38;;;;;;;12.07;5.67;;;;;;;3.28;77.76;100127.06;2198743;80;27702;-59
2022/01/17 12:27:41;;;;;;;9.75;3.87;;;;;;;3.37;77.69;100129.09;2199831;80;28711;-59
2022/01/17 12:30:54;;;;;;;14.80;7.47;;;;;;;3.44;77.76;100114.36;2199685;80;32294;-59
2022/01/17 12:34:08;;;;;;;16.23;6.22;;;;;;;3.54;77.86;100104.85;2198246;80;34203;-60
2022/01/17 12:37:31;;;;;;;11.93;5.70;;;;;;;3.63;77.90;100109.48;2119521;83;29905;-60
2022/01/17 12:40:40;;;;;;;13.62;7.67;;;;;;;3.72;77.94;100119.45;2138441;81;27756;-59
2022/01/17 12:43:42;;;;;;;13.55;6.72;;;;;;;3.82;78.00;100132.88;2158799;82;28622;-60
2022/01/17 12:46:46;;;;;;;15.45;7.00;;;;;;;3.88;78.01;100148.64;2158002;81;32206;-59
2022/01/17 12:49:49;;;;;;;10.65;5.87;;;;;;;3.94;78.08;100134.36;2158513;82;33044;-59
2022/01/17 12:52:51;;;;;;;10.60;4.85;;;;;;;4.03;78.23;100143.86;2158043;82;29914;-59
2022/01/17 12:55:58;;;;;;;11.03;4.75;;;;;;;4.06;77.95;100144.65;2159121;82;27655;-60
2022/01/17 12:59:01;;;;;;;12.53;6.20;;;;;;;4.09;77.85;100136.63;2159489;81;28289;-60
2022/01/17 13:02:04;;;;;;;11.43;4.72;;;;;;;4.10;77.83;100145.44;2158420;81;31016;-59
2022/01/17 13:05:07;;;;;;;10.50;3.98;;;;;;;4.06;77.58;100156.58;2158500;82;33601;-61
2022/01/17 13:08:09;;;;;;;7.22;3.72;;;;;;;4.05;77.43;100164.58;2157866;82;29725;-60
2022/01/17 13:11:22;;;;;;;12.95;6.42;;;;;;;4.01;77.23;100181.47;2187727;79;27695;-59
2022/01/17 13:14:25;;;;;;;7.17;3.33;;;;;;;3.98;77.20;100190.81;2244726;78;29927;-60
2022/01/17 13:17:32;;;;;;;8.85;3.15;;;;;;;3.89;76.85;100206.48;2281762;78;32214;-60
2022/01/17 13:20:34;;;;;;;9.63;3.90;;;;;;;3.79;76.57;100209.35;2282109;78;33876;-60
2022/01/17 13:23:53;;;;;;;9.58;4.47;;;;;;;3.67;76.45;100216.70;2252011;78;30096;-60
2022/01/17 13:26:58;;;;;;;7.03;4.00;;;;;;;3.57;76.50;100219.54;2280657;78;27659;-59
2022/01/17 13:30:09;;;;;;;8.68;3.65;;;;;;;3.46;76.42;100218.91;2282304;78;29447;-60
2022/01/17 13:33:12;;;;;;;10.68;3.52;;;;;;;3.34;76.27;100235.48;2282609;78;31631;-59
2022/01/17 13:36:28;;;;;;;9.30;3.00;;;;;;;3.23;76.23;100237.47;2279054;78;34333;-59
2022/01/17 13:39:30;;;;;;;17.50;3.27;;;;;;;3.13;76.13;100263.28;2270409;78;29031;-60
2022/01/17 13:42:33;;;;;;;8.23;3.87;;;;;;;3.03;76.14;100277.56;2237387;79;27660;-60
2022/01/17 13:45:47;;;;;;;8.60;4.85;;;;;;;2.97;76.31;100267.98;2237914;79;29656;-60
2022/01/17 13:48:49;;;;;;;12.07;4.33;;;;;;;2.92;76.26;100268.97;2237167;79;32252;-59
2022/01/17 13:51:51;;;;;;;10.48;3.87;;;;;;;2.85;76.30;100269.53;2237618;79;33423;-59
2022/01/17 13:54:54;;;;;;;12.15;3.98;;;;;;;2.79;76.07;100274.92;2237306;79;28792;-59
2022/01/17 13:58:03;;;;;;;8.58;4.30;;;;;;;2.71;75.86;100277.70;2237742;79;27612;-59
2022/01/17 14:01:15;;;;;;;10.10;4.75;;;;;;;2.62;75.90;100278.74;2237562;79;28865;-60
2022/01/17 14:04:29;;;;;;;17.77;7.55;;;;;;;2.54;75.85;100282.84;2237116;79;32088;-59
2022/01/17 14:07:30;;;;;;;19.52;10.20;;;;;;;2.48;75.90;100304.11;2237069;79;32938;-59
2022/01/17 14:10:33;;;;;;;9.28;4.72;;;;;;;2.42;75.90;100315.64;2249024;78;29118;-58
2022/01/17 14:13:52;;;;;;;13.28;5.78;;;;;;;2.36;75.67;100337.34;2259750;78;28276;-58
2022/01/17 14:16:55;;;;;;;9.68;4.25;;;;;;;2.29;75.73;100340.52;2259794;78;28680;-60
2022/01/17 14:20:19;;;;;;;10.88;4.28;;;;;;;2.23;75.67;100339.31;2259500;78;31060;-60
2022/01/17 14:23:30;;;;;;;10.75;4.60;;;;;;;2.19;75.59;100353.45;2259630;78;34155;-60